Time;durP1;ratioP1;P1;durP2;ratioP2;P2;SDS_P1;SDS_P2;PMS_P1;PMS_P2;Temp;Humidity;BMP_temperature;BMP_pressure;BME280_temperature;BME280_humidity;BME280_pressure;Samples;Min_cycle;Max_cycle;Signal;HPM_P1;HPM_P2
2021/11/27 00:00:53;;;;;;;2.75;1.98;;;;;;;3.58;91.70;98146.41;5033910;28;20030;-71
2021/11/27 00:03:19;;;;;;;3.03;2.28;;;;;;;3.54;90.76;98146.91;5026696;28;20546;-71
2021/11/27 00:05:46;;;;;;;3.72;1.73;;;;;;;3.44;91.05;98147.94;5031551;28;20029;-71
2021/11/27 00:08:13;;;;;;;5.63;1.73;;;;;;;3.50;90.92;98149.03;5040097;28;20039;-71
2021/11/27 00:10:42;;;;;;;2.88;2.13;;;;;;;3.57;90.71;98144.00;5029388;28;20430;-71
2021/11/27 00:13:09;;;;;;;3.03;2.20;;;;;;;3.64;90.71;98147.47;5044464;28;20137;-71
2021/11/27 00:15:37;;;;;;;3.08;1.88;;;;;;;3.50;91.20;98138.78;5036215;28;20061;-71
2021/11/27 00:18:04;;;;;;;2.47;1.88;;;;;;;3.44;92.06;98131.78;5031530;28;20029;-71
2021/11/27 00:20:37;;;;;;;3.13;2.30;;;;;;;3.54;91.78;98127.19;5029822;28;20556;-71
2021/11/27 00:23:04;;;;;;;3.38;2.30;;;;;;;3.58;91.30;98131.03;5047710;28;20041;-71
2021/11/27 00:25:29;;;;;;;3.08;2.40;;;;;;;3.50;92.06;98138.78;5030313;28;20075;-71
2021/11/27 00:27:55;;;;;;;3.17;2.35;;;;;;;3.40;92.70;98133.91;5039721;28;20037;-71
2021/11/27 00:30:25;;;;;;;5.82;3.10;;;;;;;3.48;93.10;98138.16;5034714;28;20132;-71
2021/11/27 00:32:50;;;;;;;3.45;2.67;;;;;;;3.43;92.73;98135.34;5035356;28;20033;-71
2021/11/27 00:35:19;;;;;;;7.80;3.30;;;;;;;3.54;92.85;98142.56;5030775;28;20492;-71
2021/11/27 00:37:48;;;;;;;5.53;3.15;;;;;;;3.37;93.29;98136.03;5035951;28;20086;-71
2021/11/27 00:40:14;;;;;;;4.40;3.20;;;;;;;3.48;92.81;98136.41;5037011;28;20115;-71
2021/11/27 00:42:39;;;;;;;4.47;3.22;;;;;;;3.52;92.58;98134.28;5037549;28;20071;-71
2021/11/27 00:45:11;;;;;;;4.60;3.28;;;;;;;3.47;92.41;98137.38;5033347;28;20510;-71
2021/11/27 00:47:42;;;;;;;4.63;3.50;;;;;;;3.40;93.30;98140.81;5025118;28;20036;-71
2021/11/27 00:50:08;;;;;;;7.35;3.58;;;;;;;3.47;93.33;98144.28;5029249;28;20466;-71
2021/11/27 00:52:34;;;;;;;6.55;3.28;;;;;;;3.47;93.03;98144.28;5031149;28;20083;-71
2021/11/27 00:54:59;;;;;;;5.13;3.28;;;;;;;3.46;93.28;98146.00;5032749;28;20025;-71
2021/11/27 00:57:25;;;;;;;7.80;3.78;;;;;;;3.55;93.27;98141.63;5035708;28;20029;-71
2021/11/27 00:59:51;;;;;;;6.00;3.88;;;;;;;3.55;93.00;98138.25;5021239;28;20055;-71
2021/11/27 01:02:19;;;;;;;5.20;3.85;;;;;;;3.54;93.15;98136.66;5034161;28;20518;-71
2021/11/27 01:04:54;;;;;;;5.82;3.80;;;;;;;3.59;93.13;98145.41;5033133;28;20429;-71
2021/11/27 01:07:21;;;;;;;6.25;3.83;;;;;;;3.54;93.48;98145.13;5025759;28;20029;-71
2021/11/27 01:09:47;;;;;;;10.43;4.55;;;;;;;3.63;93.48;98141.53;5035867;28;20039;-71
2021/11/27 01:12:12;;;;;;;7.13;4.88;;;;;;;3.56;94.03;98150.91;5019268;28;20026;-71
2021/11/27 01:14:38;;;;;;;6.93;4.25;;;;;;;3.47;94.55;98149.41;5032919;28;20479;-71
2021/11/27 01:17:09;;;;;;;5.13;4.00;;;;;;;3.50;94.46;98134.47;5028867;28;20029;-71
2021/11/27 01:19:37;;;;;;;6.38;4.40;;;;;;;3.49;94.55;98144.88;5027343;28;20037;-71
2021/11/27 01:22:07;;;;;;;7.25;4.90;;;;;;;3.54;94.37;98141.78;5013443;28;20029;-71
2021/11/27 01:24:33;;;;;;;6.70;4.75;;;;;;;3.40;95.32;98140.81;5016648;28;20029;-71
2021/11/27 01:27:00;;;;;;;6.72;4.60;;;;;;;3.48;94.93;98133.84;5027161;28;20488;-71
2021/11/27 01:29:25;;;;;;;8.90;4.72;;;;;;;3.44;95.17;98139.47;5035137;28;20044;-71
2021/11/27 01:31:51;;;;;;;7.95;5.10;;;;;;;3.40;95.13;98143.38;5012208;28;20033;-71
2021/11/27 01:34:17;;;;;;;8.07;5.03;;;;;;;3.46;95.83;98147.78;5007193;28;20219;-71
2021/11/27 01:36:43;;;;;;;7.40;4.97;;;;;;;3.37;96.13;98143.72;5014529;28;20415;-71
2021/11/27 01:39:08;;;;;;;11.98;5.25;;;;;;;3.46;95.64;98135.75;5038289;28;20553;-71
2021/11/27 01:41:35;;;;;;;9.20;5.50;;;;;;;3.51;96.01;98140.38;5033074;28;20025;-71
2021/11/27 01:44:01;;;;;;;7.50;4.97;;;;;;;3.42;95.97;98139.66;5026947;28;20079;-71
2021/11/27 01:46:27;;;;;;;7.68;5.45;;;;;;;3.40;96.25;98133.91;5031801;28;20396;-71
2021/11/27 01:48:53;;;;;;;8.25;5.43;;;;;;;3.39;96.61;98139.19;5031401;28;20036;-71
2021/11/27 01:51:21;;;;;;;8.80;6.47;;;;;;;3.35;96.93;98132.84;5030357;28;20022;-71
2021/11/27 01:53:51;;;;;;;9.65;6.38;;;;;;;3.40;96.66;98145.94;5035480;28;20032;-71
2021/11/27 01:56:23;;;;;;;7.80;5.80;;;;;;;3.38;96.77;98147.88;5037313;28;20064;-71
2021/11/27 01:58:49;;;;;;;8.65;6.30;;;;;;;3.30;96.55;98156.44;5035359;28;20580;-71
2021/11/27 02:01:20;;;;;;;9.57;6.10;;;;;;;3.31;96.55;98147.75;5040239;28;20021;-71
2021/11/27 02:03:47;;;;;;;9.90;6.55;;;;;;;3.30;96.60;98146.97;5034657;28;20021;-71
2021/11/27 02:06:28;;;;;;;9.25;6.20;;;;;;;3.41;96.23;98150.88;5019425;28;20477;-71
2021/11/27 02:08:56;;;;;;;9.77;6.55;;;;;;;3.36;95.94;98149.81;5022928;28;20074;-71
2021/11/27 02:11:26;;;;;;;10.35;6.28;;;;;;;3.31;96.18;98156.25;5031989;28;20488;-71
2021/11/27 02:13:53;;;;;;;10.38;6.85;;;;;;;3.29;95.74;98158.16;5033201;28;20416;-71
2021/11/27 02:16:19;;;;;;;10.68;7.00;;;;;;;3.24;96.04;98155.34;5035301;28;20079;-71
2021/11/27 02:18:45;;;;;;;13.00;7.13;;;;;;;3.25;95.44;98164.63;5033360;28;20121;-71
2021/11/27 02:21:13;;;;;;;11.77;7.95;;;;;;;3.26;94.37;98161.09;5020478;28;20449;-71
2021/11/27 02:23:40;;;;;;;12.95;8.88;;;;;;;3.20;93.99;98166.91;5041542;28;20051;-70
2021/11/27 02:26:09;;;;;;;11.07;8.15;;;;;;;3.05;91.88;98176.28;5036838;28;20099;-71
2021/11/27 02:28:44;;;;;;;11.32;7.45;;;;;;;2.89;91.90;98184.91;5034088;28;20112;-71
2021/11/27 02:31:09;;;;;;;9.63;6.95;;;;;;;2.71;91.99;98192.84;5036038;28;20135;-71
2021/11/27 02:33:35;;;;;;;8.60;6.40;;;;;;;2.57;91.41;98186.69;5016960;28;20025;-71
2021/11/27 02:36:02;;;;;;;9.25;6.30;;;;;;;2.57;90.40;98183.34;5032961;28;20025;-70
2021/11/27 02:38:28;;;;;;;7.45;5.07;;;;;;;2.43;91.15;98184.81;5033101;28;20100;-71
2021/11/27 02:40:54;;;;;;;6.85;5.40;;;;;;;2.42;91.45;98188.34;5040037;28;20033;-70
2021/11/27 02:43:21;;;;;;;6.47;4.78;;;;;;;2.38;91.92;98187.88;5036089;28;20039;-70
2021/11/27 02:45:46;;;;;;;6.13;3.92;;;;;;;2.33;90.66;98190.16;5033760;28;20022;-71
2021/11/27 02:48:13;;;;;;;6.13;4.13;;;;;;;2.22;90.55;98193.84;5022044;28;20025;-71
2021/11/27 02:50:38;;;;;;;6.22;4.40;;;;;;;2.30;90.55;98193.06;5035618;28;20037;-71
2021/11/27 02:53:04;;;;;;;7.03;3.90;;;;;;;2.15;90.78;98203.16;5034413;28;20392;-71
2021/11/27 02:55:29;;;;;;;5.32;3.70;;;;;;;2.15;90.83;98208.28;5029923;28;20576;-71
2021/11/27 02:57:55;;;;;;;5.05;3.55;;;;;;;2.19;90.26;98207.00;5026573;28;20474;-71
2021/11/27 03:00:23;;;;;;;5.43;3.55;;;;;;;2.05;90.60;98208.44;5023704;28;20254;-71
2021/11/27 03:02:49;;;;;;;5.45;3.60;;;;;;;2.08;90.78;98207.34;5036776;28;20155;-71
2021/11/27 03:05:18;;;;;;;6.72;4.30;;;;;;;2.03;90.70;98207.03;5038196;28;20036;-71
2021/11/27 03:07:45;;;;;;;6.25;3.88;;;;;;;2.14;91.04;98211.78;5040705;28;20022;-71
2021/11/27 03:10:14;;;;;;;6.15;4.22;;;;;;;2.00;91.44;98218.38;5012997;28;20025;-71
2021/11/27 03:12:39;;;;;;;6.28;4.18;;;;;;;2.10;91.40;98220.75;5036935;28;20030;-71
2021/11/27 03:15:12;;;;;;;7.68;3.95;;;;;;;2.12;91.34;98223.94;5047921;28;20033;-70
2021/11/27 03:17:39;;;;;;;6.63;4.38;;;;;;;2.15;91.96;98226.19;5034966;28;20033;-70
2021/11/27 03:20:08;;;;;;;6.75;4.95;;;;;;;2.12;91.79;98234.16;5038149;28;20043;-70
2021/11/27 03:22:35;;;;;;;6.75;4.70;;;;;;;2.14;92.05;98233.03;5038753;28;20013;-71
2021/11/27 03:25:00;;;;;;;7.30;4.78;;;;;;;2.12;92.01;98234.16;5031975;28;20096;-70
2021/11/27 03:27:26;;;;;;;7.43;4.97;;;;;;;2.10;91.72;98246.31;5035561;28;20570;-70
2021/11/27 03:29:52;;;;;;;8.07;5.43;;;;;;;2.08;92.34;98235.47;5032242;28;20079;-70
2021/11/27 03:32:19;;;;;;;9.10;4.93;;;;;;;2.09;92.42;98240.41;5035092;28;20535;-70
2021/11/27 03:35:07;;;;;;;9.57;5.75;;;;;;;2.07;92.70;98244.09;5037488;28;20507;-70
2021/11/27 03:37:42;;;;;;;8.18;5.15;;;;;;;2.02;92.91;98248.91;5035283;28;20031;-71
2021/11/27 03:40:12;;;;;;;7.28;5.28;;;;;;;2.06;92.90;98250.97;5038877;28;20044;-70
2021/11/27 03:42:38;;;;;;;8.00;5.40;;;;;;;2.11;92.86;98256.41;5037092;28;20037;-71
2021/11/27 03:45:11;;;;;;;7.90;5.22;;;;;;;1.98;93.55;98260.41;5034688;28;20041;-70
2021/11/27 03:47:51;;;;;;;;;;;;;;;1.93;94.11;98271.13;5021278;28;20035;-71
2021/11/27 03:50:16;;;;;;;11.15;6.22;;;;;;;1.90;94.40;98277.38;5035975;28;20256;-71
2021/11/27 03:52:42;;;;;;;8.10;5.55;;;;;;;2.01;94.46;98281.31;5031650;28;20029;-71
2021/11/27 03:55:12;;;;;;;9.05;6.00;;;;;;;2.07;93.70;98283.25;5032845;28;20043;-71
2021/11/27 03:57:38;;;;;;;9.88;5.57;;;;;;;2.05;93.85;98287.69;5038604;28;20033;-71
2021/11/27 04:00:07;;;;;;;7.60;5.47;;;;;;;1.99;94.05;98285.00;5018444;28;20025;-71
2021/11/27 04:02:40;;;;;;;10.40;5.80;;;;;;;1.97;94.86;98285.16;5043789;28;20582;-70
2021/11/27 04:05:08;;;;;;;8.50;6.13;;;;;;;2.03;94.49;98286.28;5032963;28;20526;-70
2021/11/27 04:07:33;;;;;;;10.98;7.35;;;;;;;2.10;94.13;98295.69;5035180;28;20177;-71
2021/11/27 04:09:59;;;;;;;11.63;7.50;;;;;;;2.07;94.35;98292.66;5018107;28;20032;-71
2021/11/27 04:12:25;;;;;;;14.38;9.60;;;;;;;1.97;94.52;98302.28;5037340;28;20033;-71
2021/11/27 04:14:50;;;;;;;15.25;9.38;;;;;;;2.03;94.55;98301.63;5039393;28;20029;-71
2021/11/27 04:17:16;;;;;;;17.70;10.20;;;;;;;1.98;94.71;98299.56;5019480;28;20590;-71
2021/11/27 04:19:44;;;;;;;18.83;11.60;;;;;;;1.97;95.02;98297.94;5033656;28;20036;-71
2021/11/27 04:22:09;;;;;;;19.73;10.55;;;;;;;2.01;94.85;98298.44;5034839;28;20040;-70
2021/11/27 04:24:39;;;;;;;18.60;10.48;;;;;;;2.08;94.88;98296.81;5020438;28;20059;-71
2021/11/27 04:27:05;;;;;;;16.90;10.00;;;;;;;2.08;94.04;98299.38;5035884;28;20025;-71
2021/11/27 04:29:31;;;;;;;14.75;9.07;;;;;;;2.13;94.09;98305.59;5013736;28;20025;-70
2021/11/27 04:31:57;;;;;;;17.77;9.10;;;;;;;2.05;94.40;98299.69;5038886;28;20398;-70
2021/11/27 04:34:23;;;;;;;14.75;8.63;;;;;;;2.04;94.49;98300.66;5029361;28;20021;-71
2021/11/27 04:36:49;;;;;;;17.85;8.18;;;;;;;2.00;94.55;98312.97;5035160;28;20028;-70
2021/11/27 04:39:14;;;;;;;15.10;7.90;;;;;;;1.97;94.78;98317.59;5015822;28;20026;-71
2021/11/27 04:41:40;;;;;;;14.38;8.38;;;;;;;2.05;94.57;98320.16;5036500;28;20048;-71
2021/11/27 04:44:06;;;;;;;14.15;7.95;;;;;;;2.02;94.32;98336.63;5032420;28;20049;-70
2021/11/27 04:46:31;;;;;;;12.45;7.57;;;;;;;1.99;94.74;98339.47;5019021;28;20029;-71
2021/11/27 04:48:57;;;;;;;14.75;8.25;;;;;;;1.97;94.75;98336.28;5029922;28;20025;-71
2021/11/27 04:51:23;;;;;;;13.13;7.75;;;;;;;1.96;94.66;98337.25;5034343;28;20029;-70
2021/11/27 04:53:50;;;;;;;16.65;8.82;;;;;;;1.99;94.74;98333.59;5035804;28;20017;-71
2021/11/27 04:56:17;;;;;;;17.88;8.40;;;;;;;2.03;94.58;98339.97;5034118;28;20022;-70
2021/11/27 04:58:42;;;;;;;14.60;8.25;;;;;;;2.00;94.60;98340.28;5019032;28;20032;-71
2021/11/27 05:01:10;;;;;;;14.88;8.18;;;;;;;1.90;94.65;98338.72;5032359;28;20074;-71
2021/11/27 05:03:47;;;;;;;15.88;9.07;;;;;;;1.89;95.01;98334.53;5031863;28;20605;-70
2021/11/27 05:06:13;;;;;;;16.13;8.73;;;;;;;1.88;94.79;98355.94;5015830;28;20032;-71
2021/11/27 05:08:39;;;;;;;14.90;9.00;;;;;;;1.96;94.15;98360.28;5017801;28;20106;-70
2021/11/27 05:11:05;;;;;;;18.52;8.68;;;;;;;1.91;94.34;98365.06;5033091;28;20030;-70
2021/11/27 05:13:31;;;;;;;14.38;8.85;;;;;;;1.83;94.42;98370.97;5011603;28;20033;-71
2021/11/27 05:15:57;;;;;;;18.40;7.88;;;;;;;1.82;94.11;98369.34;5013728;28;20395;-71
2021/11/27 05:18:22;;;;;;;12.98;8.23;;;;;;;1.81;93.69;98372.06;5031883;28;20115;-71
2021/11/27 05:20:54;;;;;;;12.63;8.20;;;;;;;1.72;94.20;98369.50;5033646;28;20497;-71
2021/11/27 05:23:20;;;;;;;18.23;9.05;;;;;;;1.67;94.52;98378.59;5032866;28;20152;-70
2021/11/27 05:25:47;;;;;;;12.50;8.32;;;;;;;1.65;94.76;98376.19;5034945;28;20100;-71
2021/11/27 05:28:33;;;;;;;19.27;9.63;;;;;;;1.69;94.49;98377.47;4989358;28;20037;-70
2021/11/27 05:31:24;;;;;;;20.98;9.55;;;;;;;1.68;94.89;98386.13;5029006;28;20045;-70
2021/11/27 05:36:44;;;;;;;18.50;10.85;;;;;;;1.78;94.00;98383.41;5022549;28;20048;-71
2021/11/27 05:39:10;;;;;;;19.67;10.95;;;;;;;1.72;94.51;98387.41;5015227;28;20134;-70
2021/11/27 05:41:35;;;;;;;23.30;11.23;;;;;;;1.73;94.90;98381.34;5017386;28;20124;-70
2021/11/27 05:44:01;;;;;;;20.27;10.45;;;;;;;1.78;94.69;98383.41;5012050;28;20028;-71
2021/11/27 05:46:28;;;;;;;17.48;10.77;;;;;;;1.79;94.56;98387.56;5033396;28;20431;-71
2021/11/27 05:48:53;;;;;;;18.13;10.52;;;;;;;1.74;94.85;98398.25;5034185;28;20063;-70
2021/11/27 05:51:34;;;;;;;21.90;11.35;;;;;;;1.71;95.60;98397.78;5028961;28;20477;-71
2021/11/27 05:53:59;;;;;;;21.67;10.95;;;;;;;1.72;95.73;98401.94;5034803;28;20039;-70
2021/11/27 05:56:25;;;;;;;21.48;10.95;;;;;;;1.74;95.97;98411.03;5029673;28;20504;-71
2021/11/27 05:58:50;;;;;;;20.17;11.25;;;;;;;1.74;95.81;98408.47;5038128;28;20056;-70
2021/11/27 06:01:16;;;;;;;21.25;10.65;;;;;;;1.75;95.96;98411.81;5029396;28;20041;-71
2021/11/27 06:03:41;;;;;;;18.08;10.25;;;;;;;1.78;96.33;98413.28;5039074;28;20025;-71
2021/11/27 06:06:07;;;;;;;19.40;11.40;;;;;;;1.79;96.11;98414.88;5033881;28;20033;-71
2021/11/27 06:08:32;;;;;;;21.45;12.07;;;;;;;1.81;96.31;98416.31;5032266;28;20033;-71
2021/11/27 06:10:58;;;;;;;20.92;11.02;;;;;;;1.82;96.28;98422.22;5034463;28;20037;-71
2021/11/27 06:13:23;;;;;;;24.25;11.98;;;;;;;1.82;96.41;98420.47;5037137;28;20364;-71
2021/11/27 06:15:49;;;;;;;20.48;11.63;;;;;;;1.83;96.56;98434.03;5035544;28;20029;-71
2021/11/27 06:18:14;;;;;;;18.02;10.95;;;;;;;1.85;96.84;98437.25;5036288;28;20021;-70
2021/11/27 06:20:40;;;;;;;21.08;12.20;;;;;;;1.87;96.62;98432.78;5037624;28;20374;-71
2021/11/27 06:23:06;;;;;;;21.08;12.10;;;;;;;1.88;96.74;98440.28;5035405;28;20614;-71
2021/11/27 06:25:31;;;;;;;21.20;11.43;;;;;;;1.88;96.54;98440.28;5030891;28;20403;-71
2021/11/27 06:27:58;;;;;;;20.70;11.27;;;;;;;1.89;96.61;98441.09;5028716;28;20129;-70
2021/11/27 06:30:24;;;;;;;23.52;11.40;;;;;;;1.87;96.70;98446.34;5012326;28;20025;-71
2021/11/27 06:32:50;;;;;;;19.98;11.50;;;;;;;1.95;96.70;98455.78;5031923;28;20032;-71
2021/11/27 06:35:15;;;;;;;25.45;12.43;;;;;;;1.93;96.57;98460.25;5028091;28;20404;-71
2021/11/27 06:37:41;;;;;;;20.33;11.00;;;;;;;1.93;96.63;98457.72;5028010;28;20056;-71
2021/11/27 06:40:08;;;;;;;22.65;12.20;;;;;;;1.94;96.56;98456.75;5031822;28;20480;-71
2021/11/27 06:42:41;;;;;;;25.02;13.07;;;;;;;2.07;96.39;98456.28;5022006;28;20055;-71
2021/11/27 06:45:39;;;;;;;21.95;12.40;;;;;;;2.07;95.91;98461.41;5033721;28;20037;-71
2021/11/27 06:48:07;;;;;;;22.85;11.75;;;;;;;2.04;95.78;98474.50;5012555;28;20491;-71
2021/11/27 06:50:33;;;;;;;28.98;12.75;;;;;;;2.01;96.00;98467.16;5030227;28;20028;-70
2021/11/27 06:52:58;;;;;;;21.52;11.70;;;;;;;2.06;96.11;98480.25;5024255;28;20394;-71
2021/11/27 06:55:24;;;;;;;25.98;13.02;;;;;;;2.09;95.55;98483.31;5030924;28;20036;-70
2021/11/27 06:57:50;;;;;;;25.23;12.95;;;;;;;2.09;95.81;98490.16;5032869;28;20033;-70
2021/11/27 07:00:16;;;;;;;26.50;12.27;;;;;;;2.08;96.17;98491.13;5032093;28;20052;-71
2021/11/27 07:03:02;;;;;;;24.65;12.27;;;;;;;2.06;96.19;98503.28;5002064;28;20581;-70
2021/11/27 07:05:54;;;;;;;24.73;12.38;;;;;;;2.02;96.51;98505.34;5031384;28;20504;-71
2021/11/27 07:08:22;;;;;;;27.83;14.43;;;;;;;2.24;95.76;98508.25;5032072;28;20061;-70
2021/11/27 07:10:54;;;;;;;24.42;12.60;;;;;;;2.20;95.15;98517.97;5050976;28;20171;-71
2021/11/27 07:13:23;;;;;;;23.88;11.93;;;;;;;2.18;95.43;98519.09;5035574;28;20029;-71
2021/11/27 07:15:53;;;;;;;32.20;14.55;;;;;;;2.14;95.30;98529.63;5034921;28;20353;-70
2021/11/27 07:18:19;;;;;;;26.80;14.23;;;;;;;2.13;95.44;98537.50;5037483;28;20040;-71
2021/11/27 07:20:44;;;;;;;28.15;13.38;;;;;;;2.09;95.50;98537.00;5009227;28;20084;-71
2021/11/27 07:23:10;;;;;;;27.55;13.48;;;;;;;2.15;95.44;98545.81;5033377;28;20025;-71
2021/11/27 07:25:37;;;;;;;31.25;15.27;;;;;;;2.24;95.16;98549.16;5040844;28;20037;-70
2021/11/27 07:28:24;;;;;;;31.92;14.98;;;;;;;2.14;94.91;98550.09;5032971;28;20395;-70
2021/11/27 07:30:50;;;;;;;31.83;14.70;;;;;;;2.17;95.14;98550.75;5033259;28;20036;-70
2021/11/27 07:33:15;;;;;;;32.60;14.23;;;;;;;2.14;95.12;98552.66;5030521;28;20030;-71
2021/11/27 07:35:40;;;;;;;29.13;14.13;;;;;;;2.14;95.37;98556.97;5036807;28;20045;-71
2021/11/27 07:38:06;;;;;;;31.67;15.52;;;;;;;2.14;95.51;98560.31;5035492;28;20037;-71
2021/11/27 07:40:32;;;;;;;34.72;16.08;;;;;;;2.14;95.20;98569.75;5039683;28;20103;-70
2021/11/27 07:42:58;;;;;;;32.03;15.00;;;;;;;2.10;95.38;98574.38;5039304;28;20376;-70
2021/11/27 07:45:27;;;;;;;37.60;15.30;;;;;;;2.12;95.46;98579.34;5038839;28;20033;-70
2021/11/27 07:48:11;;;;;;;33.08;14.88;;;;;;;2.14;95.76;98580.78;5033237;28;20044;-70
2021/11/27 07:50:55;;;;;;;35.53;16.48;;;;;;;2.17;95.66;98582.25;5042103;28;20051;-71
2021/11/27 07:53:26;;;;;;;35.45;17.45;;;;;;;2.16;95.55;98585.75;5023047;28;20106;-71
2021/11/27 07:55:51;;;;;;;34.67;17.08;;;;;;;2.16;95.34;98587.50;5033522;28;20487;-70
2021/11/27 07:58:17;;;;;;;36.03;17.63;;;;;;;2.16;95.44;98590.06;5013803;28;20272;-71
2021/11/27 08:00:42;;;;;;;37.50;17.38;;;;;;;2.16;95.51;98592.63;5030458;28;20365;-70
2021/11/27 08:03:08;;;;;;;31.90;15.75;;;;;;;2.17;95.63;98589.91;5030263;28;20044;-71
2021/11/27 08:05:33;;;;;;;40.05;17.67;;;;;;;2.19;95.39;98593.13;5027019;28;20025;-70
2021/11/27 08:07:59;;;;;;;32.00;15.07;;;;;;;2.21;95.34;98600.63;5041324;28;20449;-71
2021/11/27 08:10:24;;;;;;;36.17;16.08;;;;;;;2.20;95.28;98599.81;5036019;28;20030;-71
2021/11/27 08:12:50;;;;;;;31.75;14.45;;;;;;;2.22;95.29;98607.34;5042664;28;20029;-71
2021/11/27 08:15:15;;;;;;;30.17;14.32;;;;;;;2.23;94.99;98611.50;5030675;28;20103;-71
2021/11/27 08:17:41;;;;;;;27.15;14.18;;;;;;;2.24;94.73;98607.97;5036709;28;20032;-71
2021/11/27 08:20:08;;;;;;;38.10;16.02;;;;;;;2.27;93.93;98611.03;5034037;28;20021;-70
2021/11/27 08:22:34;;;;;;;29.40;14.93;;;;;;;2.25;93.67;98625.72;5030368;28;20083;-71
2021/11/27 08:24:59;;;;;;;32.03;15.65;;;;;;;2.23;93.93;98612.31;5031184;28;20480;-71
2021/11/27 08:27:27;;;;;;;36.75;15.40;;;;;;;2.23;93.71;98624.28;5032922;28;20053;-71
2021/11/27 08:29:56;;;;;;;28.65;14.60;;;;;;;2.27;93.01;98626.38;5038711;28;20442;-71
2021/11/27 08:32:23;;;;;;;37.70;15.73;;;;;;;2.27;92.94;98628.13;5014612;28;20030;-71
2021/11/27 08:34:49;;;;;;;32.80;15.65;;;;;;;2.29;92.54;98626.22;5030354;28;20049;-70
2021/11/27 08:37:14;;;;;;;36.55;16.23;;;;;;;2.23;92.99;98632.75;5038075;28;20476;-71
2021/11/27 08:39:40;;;;;;;34.58;16.48;;;;;;;2.25;92.84;98642.84;5031813;28;20038;-71
2021/11/27 08:42:05;;;;;;;29.83;15.05;;;;;;;2.25;93.12;98645.41;5041095;28;20028;-71
2021/11/27 08:44:31;;;;;;;31.92;16.25;;;;;;;2.30;92.78;98643.19;5036082;28;20029;-71
2021/11/27 08:46:57;;;;;;;32.90;13.85;;;;;;;2.34;92.29;98652.16;5036787;28;20029;-70
2021/11/27 08:49:22;;;;;;;33.88;14.75;;;;;;;2.37;92.26;98656.94;5031793;28;20038;-71
2021/11/27 08:51:48;;;;;;;32.38;14.85;;;;;;;2.37;92.22;98656.94;5032161;28;20041;-71
2021/11/27 08:54:15;;;;;;;38.75;16.75;;;;;;;2.30;92.22;98661.09;5034524;28;20029;-70
2021/11/27 08:56:41;;;;;;;55.05;22.65;;;;;;;2.40;92.16;98659.19;5039443;28;20035;-71
2021/11/27 08:59:07;;;;;;;51.10;21.80;;;;;;;2.31;92.39;98665.22;5033576;28;20041;-71
2021/11/27 09:01:33;;;;;;;39.58;18.85;;;;;;;2.39;91.99;98665.25;5033622;28;20032;-71
2021/11/27 09:03:59;;;;;;;36.10;16.48;;;;;;;2.48;90.75;98668.66;5028974;28;20493;-71
2021/11/27 09:06:25;;;;;;;41.15;20.10;;;;;;;2.39;91.32;98665.25;5031578;28;20033;-71
2021/11/27 09:08:51;;;;;;;29.45;15.35;;;;;;;2.48;91.34;98660.97;5032785;28;20462;-71
2021/11/27 09:11:18;;;;;;;29.20;14.18;;;;;;;2.38;91.27;98673.09;5015118;28;20216;-71
2021/11/27 09:13:46;;;;;;;30.48;13.07;;;;;;;2.36;91.07;98673.25;5029867;28;20104;-71
2021/11/27 09:16:13;;;;;;;28.63;13.13;;;;;;;2.33;91.10;98669.22;5032100;28;20116;-71
2021/11/27 09:18:39;;;;;;;24.40;11.40;;;;;;;2.32;91.45;98674.53;5017170;28;20025;-71
2021/11/27 09:21:04;;;;;;;31.60;13.10;;;;;;;2.27;91.31;98680.09;5029587;28;20037;-70
2021/11/27 09:23:30;;;;;;;24.40;11.02;;;;;;;2.31;91.45;98685.69;5027945;28;20029;-71
2021/11/27 09:25:56;;;;;;;23.73;12.48;;;;;;;2.38;91.83;98683.34;5006730;28;20083;-71
2021/11/27 09:28:22;;;;;;;24.45;11.63;;;;;;;2.45;90.60;98682.56;5028908;28;20255;-71
2021/11/27 09:30:48;;;;;;;28.10;10.88;;;;;;;2.52;90.14;98698.91;5025118;28;20147;-71
2021/11/27 09:33:14;;;;;;;25.58;11.48;;;;;;;2.52;89.42;98701.47;5025894;28;20071;-71
2021/11/27 09:35:47;;;;;;;31.50;11.13;;;;;;;2.50;89.40;98700.78;5031253;28;20060;-71
2021/11/27 09:38:13;;;;;;;25.58;11.13;;;;;;;2.55;89.24;98700.34;5023933;28;20397;-70
2021/11/27 09:40:39;;;;;;;24.77;10.13;;;;;;;2.56;89.17;98703.69;5026568;28;20037;-70
2021/11/27 09:43:06;;;;;;;26.40;10.68;;;;;;;2.67;88.88;98708.50;5027648;28;20037;-71
2021/11/27 09:45:33;;;;;;;19.85;9.70;;;;;;;2.71;88.37;98712.38;5027401;28;20372;-70
2021/11/27 09:48:00;;;;;;;21.65;9.00;;;;;;;2.71;88.30;98714.91;5007605;28;20033;-71
2021/11/27 09:50:25;;;;;;;24.65;9.90;;;;;;;2.68;88.34;98722.94;5030932;28;20522;-70
2021/11/27 09:52:52;;;;;;;22.52;9.75;;;;;;;2.76;88.75;98729.81;5027461;28;20033;-71
2021/11/27 09:55:19;;;;;;;27.15;9.02;;;;;;;2.79;87.42;98722.63;5034239;28;20040;-71
2021/11/27 09:57:48;;;;;;;31.70;8.98;;;;;;;2.86;87.34;98731.31;5026908;28;20087;-70
2021/11/27 10:00:15;;;;;;;24.35;9.20;;;;;;;2.91;86.41;98741.06;5028448;28;20083;-71
2021/11/27 10:02:44;;;;;;;23.45;8.25;;;;;;;3.00;85.51;98745.25;5028687;28;20159;-70
2021/11/27 10:05:11;;;;;;;25.75;8.88;;;;;;;3.02;85.08;98738.22;5027325;28;20029;-71
2021/11/27 10:07:41;;;;;;;23.35;9.75;;;;;;;3.02;85.59;98743.31;5014263;28;20025;-71
2021/11/27 10:10:11;;;;;;;24.65;9.40;;;;;;;3.04;85.77;98749.09;5033556;28;20059;-71
2021/11/27 10:12:39;;;;;;;25.33;8.40;;;;;;;3.07;86.48;98747.97;5030542;28;20034;-71
2021/11/27 10:15:05;;;;;;;21.17;8.95;;;;;;;3.10;86.61;98750.22;5028861;28;20035;-71
2021/11/27 10:17:31;;;;;;;21.38;8.07;;;;;;;2.96;86.89;98754.19;5031373;28;20498;-70
2021/11/27 10:20:05;;;;;;;21.08;7.72;;;;;;;3.03;87.01;98756.94;5033567;28;20029;-71
2021/11/27 10:22:37;;;;;;;22.40;7.72;;;;;;;3.02;85.88;98750.22;5030599;28;20459;-71
2021/11/27 10:25:02;;;;;;;22.25;8.00;;;;;;;3.06;85.96;98761.75;5034613;28;20120;-71
2021/11/27 10:27:30;;;;;;;23.27;6.95;;;;;;;3.14;85.57;98755.84;5029116;28;20214;-71
2021/11/27 10:30:00;;;;;;;26.55;6.20;;;;;;;3.21;84.38;98754.25;5027781;28;20039;-71
2021/11/27 10:32:38;;;;;;;18.65;6.88;;;;;;;3.08;84.73;98758.06;5026950;28;20040;-70
2021/11/27 10:35:07;;;;;;;22.05;6.78;;;;;;;3.04;85.39;98754.22;5027846;28;20076;-71
2021/11/27 10:37:54;;;;;;;20.15;7.28;;;;;;;3.06;85.08;98752.28;5031118;28;20037;-71
2021/11/27 10:40:28;;;;;;;18.63;6.80;;;;;;;3.06;84.91;98751.50;5030457;28;20396;-70
2021/11/27 10:42:57;;;;;;;21.95;6.18;;;;;;;3.07;85.06;98747.97;5028189;28;20027;-71
2021/11/27 10:45:31;;;;;;;21.90;7.03;;;;;;;3.13;84.36;98752.47;5033545;28;20026;-70
2021/11/27 10:48:26;;;;;;;24.38;7.40;;;;;;;3.12;84.97;98755.97;5034707;28;20043;-70
2021/11/27 10:50:55;;;;;;;18.23;5.65;;;;;;;3.27;83.66;98756.97;5003697;28;21445;-70
2021/11/27 10:53:32;;;;;;;18.98;6.72;;;;;;;3.19;83.16;98753.59;5028075;28;20030;-71
2021/11/27 10:56:09;;;;;;;19.30;6.43;;;;;;;3.17;83.71;98761.44;5028324;28;20033;-71
2021/11/27 10:59:00;;;;;;;17.30;6.50;;;;;;;3.28;83.18;98762.91;5007789;28;20030;-70
2021/11/27 11:01:27;;;;;;;18.10;5.78;;;;;;;3.33;82.71;98758.09;5006660;28;20065;-71
2021/11/27 11:03:53;;;;;;;23.13;5.50;;;;;;;3.47;81.10;98757.47;5002992;28;20036;-70
2021/11/27 11:06:27;;;;;;;19.80;5.55;;;;;;;3.43;80.59;98760.53;5003964;28;20045;-80
2021/11/27 11:08:53;;;;;;;19.50;5.95;;;;;;;3.25;81.21;98764.00;5015350;28;20037;-71
2021/11/27 11:11:24;;;;;;;18.85;4.80;;;;;;;3.24;81.55;98767.53;5025281;28;20048;-71
2021/11/27 11:13:59;;;;;;;15.13;4.63;;;;;;;3.31;80.77;98765.13;5025561;28;20036;-71
2021/11/27 11:16:29;;;;;;;17.90;4.15;;;;;;;3.50;78.07;98762.28;5027776;28;20037;-71
2021/11/27 11:19:20;;;;;;;13.20;3.88;;;;;;;3.41;78.25;98760.69;5030306;28;20035;-71
2021/11/27 11:22:10;;;;;;;17.40;4.43;;;;;;;3.37;78.15;98766.25;5021804;28;20040;-71
2021/11/27 11:24:38;;;;;;;15.57;4.20;;;;;;;3.40;79.34;98766.75;5022004;28;20067;-70
2021/11/27 11:27:07;;;;;;;15.27;3.95;;;;;;;3.41;78.66;98768.38;5029746;28;20116;-71
2021/11/27 11:29:50;;;;;;;17.92;3.92;;;;;;;3.43;79.07;98771.56;5020790;28;20064;-71
2021/11/27 11:32:21;;;;;;;18.50;4.63;;;;;;;3.55;77.65;98781.50;5030424;28;20408;-71
2021/11/27 11:34:47;;;;;;;14.40;3.95;;;;;;;3.48;77.60;98768.50;5027261;28;20120;-71
2021/11/27 11:37:14;;;;;;;23.27;4.45;;;;;;;3.49;77.65;98770.13;5028373;28;20044;-71
2021/11/27 11:39:39;;;;;;;18.45;3.92;;;;;;;3.53;77.53;98775.72;5026912;28;20479;-70
2021/11/27 11:42:06;;;;;;;23.30;4.90;;;;;;;3.49;77.33;98772.69;5023999;28;20087;-71